createdAt,value
2017-09-12T00:00:46.759Z,15.86
2017-09-12T00:01:46.428Z,15.9
2017-09-12T00:02:46.418Z,16
2017-09-12T00:03:46.711Z,16.05
2017-09-12T00:04:46.701Z,16.05
2017-09-12T00:05:46.679Z,16.07
2017-09-12T00:06:46.458Z,15.9
2017-09-12T00:07:46.021Z,15.98
2017-09-12T00:08:46.330Z,16.08
2017-09-12T00:09:46.307Z,16.16
2017-09-12T00:10:46.601Z,16.08
2017-09-12T00:11:46.577Z,16.1
2017-09-12T00:12:46.295Z,16.05
2017-09-12T00:13:46.537Z,15.97
2017-09-12T00:14:46.217Z,15.92
2017-09-12T00:15:46.501Z,15.95
2017-09-12T00:16:46.481Z,15.86
2017-09-12T00:17:46.209Z,15.75
2017-09-12T00:18:46.144Z,15.71
2017-09-12T00:19:46.176Z,15.76
2017-09-12T00:20:46.409Z,15.89
2017-09-12T00:21:46.098Z,15.87
2017-09-12T00:22:46.077Z,15.97
2017-09-12T00:23:45.738Z,16.02
2017-09-12T00:24:46.088Z,15.98
2017-09-12T00:25:46.009Z,16.05
2017-09-12T00:26:45.998Z,15.97
2017-09-12T00:27:45.673Z,16.04
2017-09-12T00:28:46.285Z,16.04
2017-09-12T00:29:45.949Z,16.2
2017-09-12T00:30:45.942Z,16.17
2017-09-12T00:31:46.346Z,16.21
2017-09-12T00:32:46.276Z,16.24
2017-09-12T00:33:45.892Z,16.23
2017-09-12T00:34:45.867Z,16.23
2017-09-12T00:35:45.530Z,16.2
2017-09-12T00:36:45.890Z,16.12
2017-09-12T00:37:45.808Z,16.1
2017-09-12T00:38:46.110Z,16.08
2017-09-12T00:39:45.772Z,16.08
2017-09-12T00:40:45.839Z,16.1
2017-09-12T00:41:46.059Z,16.21
2017-09-12T00:42:45.731Z,16.16
2017-09-12T00:43:45.788Z,16.23
2017-09-12T00:44:45.677Z,16.17
2017-09-12T00:45:45.978Z,16.24
2017-09-12T00:46:45.660Z,16.21
2017-09-12T00:47:45.749Z,16.26
2017-09-12T00:48:45.609Z,16.21
2017-09-12T00:49:45.298Z,16.17
2017-09-12T00:50:45.899Z,16.21
2017-09-12T00:51:45.869Z,16.04
2017-09-12T00:52:45.852Z,16.17
2017-09-12T00:53:45.224Z,16.02
2017-09-12T00:54:45.521Z,15.92
2017-09-12T00:55:45.819Z,16.02
2017-09-12T00:56:45.480Z,15.98
2017-09-12T00:57:45.772Z,16.02
2017-09-12T00:58:45.785Z,16.02
2017-09-12T00:59:45.450Z,16.2
2017-09-12T01:00:45.719Z,16.16
2017-09-12T01:01:45.401Z,16.02
2017-09-12T01:02:45.049Z,15.92
2017-09-12T01:03:45.670Z,15.89
2017-09-12T01:04:45.670Z,15.75
2017-09-12T01:05:45.319Z,15.8
2017-09-12T01:06:45.604Z,15.95
2017-09-12T01:07:45.600Z,16.05
2017-09-12T01:08:45.253Z,16
2017-09-12T01:09:45.555Z,16.05
2017-09-12T01:10:45.554Z,16.01
2017-09-12T01:11:45.208Z,15.95
2017-09-12T01:12:45.513Z,15.94
2017-09-12T01:13:45.484Z,15.94
2017-09-12T01:14:45.498Z,15.98
2017-09-12T01:15:45.129Z,15.92
2017-09-12T01:16:45.427Z,15.92
2017-09-12T01:17:45.409Z,16.01
2017-09-12T01:18:45.409Z,15.97
2017-09-12T01:19:45.068Z,16.05
2017-09-12T01:20:45.049Z,16.02
2017-09-12T01:21:45.342Z,16.05
2017-09-12T01:22:45.326Z,16.05
2017-09-12T01:23:44.999Z,16.15
2017-09-12T01:24:44.979Z,16.05
2017-09-12T01:25:44.658Z,15.9
2017-09-12T01:26:44.938Z,15.92
2017-09-12T01:27:45.242Z,16.01
2017-09-12T01:28:45.228Z,16.08
2017-09-12T01:29:44.899Z,16.04
2017-09-12T01:30:45.198Z,15.92
2017-09-12T01:31:45.159Z,15.9
2017-09-12T01:32:45.170Z,15.94
2017-09-12T01:33:45.129Z,16
2017-09-12T01:34:45.158Z,16.02
2017-09-12T01:35:45.089Z,16.07
2017-09-12T01:36:45.150Z,16.05
2017-09-12T01:37:45.072Z,16.04
2017-09-12T01:38:45.049Z,15.94
2017-09-12T01:39:44.709Z,15.95
2017-09-12T01:40:45.156Z,15.86
2017-09-12T01:41:44.695Z,16
2017-09-12T01:42:44.990Z,15.97
2017-09-12T01:43:44.332Z,16.01
2017-09-12T01:44:44.641Z,16
2017-09-12T01:45:44.919Z,15.95
2017-09-12T01:46:44.692Z,15.97
2017-09-12T01:47:44.570Z,15.97
2017-09-12T01:48:44.860Z,15.92
2017-09-12T01:49:44.860Z,16.01
2017-09-12T01:50:44.626Z,16
2017-09-12T01:51:44.506Z,16.05
2017-09-12T01:52:44.831Z,15.92
2017-09-12T01:53:44.779Z,16
2017-09-12T01:54:44.810Z,15.8
2017-09-12T01:55:44.744Z,15.77
2017-09-12T01:56:44.739Z,15.83
2017-09-12T01:57:44.763Z,15.92
2017-09-12T01:58:44.478Z,15.95
2017-09-12T01:59:44.370Z,15.98
2017-09-12T02:00:44.453Z,15.94
2017-09-12T02:01:44.740Z,15.92
2017-09-12T02:02:44.342Z,15.95
2017-09-12T02:03:43.977Z,16.05
2017-09-12T02:04:44.319Z,16.04
2017-09-12T02:05:43.940Z,16.04
2017-09-12T02:06:44.233Z,16.07
2017-09-12T02:07:44.578Z,16.01
2017-09-12T02:08:44.560Z,15.98
2017-09-12T02:09:44.191Z,15.98
2017-09-12T02:10:44.488Z,15.98
2017-09-12T02:11:44.481Z,15.94
2017-09-12T02:12:44.136Z,16.04
2017-09-12T02:13:44.107Z,15.94
2017-09-12T02:14:44.149Z,16.04
2017-09-12T02:15:44.381Z,16.02
2017-09-12T02:16:44.395Z,16
2017-09-12T02:17:43.741Z,15.94
2017-09-12T02:18:44.386Z,15.97
2017-09-12T02:19:44.359Z,15.8
2017-09-12T02:20:43.986Z,15.97
2017-09-12T02:21:44.280Z,16.01
2017-09-12T02:22:44.284Z,15.9
2017-09-12T02:23:44.252Z,15.95
2017-09-12T02:24:44.230Z,15.92
2017-09-12T02:25:43.959Z,15.9
2017-09-12T02:26:44.310Z,15.77
2017-09-12T02:27:43.549Z,15.89
2017-09-12T02:28:44.165Z,15.95
2017-09-12T02:29:43.841Z,15.95
2017-09-12T02:30:43.808Z,15.89
2017-09-12T02:31:43.792Z,16.08
2017-09-12T02:32:43.782Z,16.01
2017-09-12T02:33:44.069Z,15.97
2017-09-12T02:34:44.050Z,15.98
2017-09-12T02:35:43.741Z,16.08
2017-09-12T02:36:44.082Z,16.02
2017-09-12T02:37:43.687Z,16.04
2017-09-12T02:38:43.966Z,16.02
2017-09-12T02:39:43.957Z,16.04
2017-09-12T02:40:43.959Z,16.02
2017-09-12T02:41:43.305Z,16.08
2017-09-12T02:42:43.992Z,16.05
2017-09-12T02:43:43.270Z,16.02
2017-09-12T02:44:43.260Z,16.07
2017-09-12T02:45:43.858Z,16.08
2017-09-12T02:46:43.850Z,16.1
2017-09-12T02:47:43.532Z,16.07
2017-09-12T02:48:43.797Z,16
2017-09-12T02:49:43.789Z,15.94
2017-09-12T02:50:43.822Z,16
2017-09-12T02:51:43.429Z,16.04
2017-09-12T02:52:43.429Z,16.05
2017-09-12T02:53:43.408Z,15.97
2017-09-12T02:54:43.709Z,15.9
2017-09-12T02:55:43.679Z,16.02
2017-09-12T02:56:43.353Z,15.9
2017-09-12T02:57:43.641Z,15.98
2017-09-12T02:58:43.319Z,16.01
2017-09-12T02:59:43.299Z,15.92
2017-09-12T03:00:43.611Z,16.01
2017-09-12T03:01:43.270Z,16.04
2017-09-12T03:02:43.248Z,16.02
2017-09-12T03:03:43.225Z,16.02
2017-09-12T03:04:43.209Z,15.97
2017-09-12T03:05:43.199Z,15.98
2017-09-12T03:06:42.868Z,16.02
2017-09-12T03:07:43.172Z,16.01
2017-09-12T03:08:43.142Z,16.07
2017-09-12T03:09:43.128Z,15.87
2017-09-12T03:10:43.408Z,15.72
2017-09-12T03:11:43.389Z,15.77
2017-09-12T03:12:43.392Z,15.8
2017-09-12T03:13:43.371Z,15.82
2017-09-12T03:14:43.030Z,15.75
2017-09-12T03:15:43.330Z,15.89
2017-09-12T03:16:43.310Z,15.8
2017-09-12T03:17:42.969Z,15.86
2017-09-12T03:18:42.670Z,15.76
2017-09-12T03:19:43.269Z,15.87
2017-09-12T03:20:43.239Z,15.69
2017-09-12T03:21:43.229Z,15.76
2017-09-12T03:22:43.220Z,15.8
2017-09-12T03:23:43.199Z,15.9
2017-09-12T03:24:43.181Z,15.9
2017-09-12T03:25:43.169Z,15.97
2017-09-12T03:26:43.129Z,15.76
2017-09-12T03:27:43.129Z,15.8
2017-09-12T03:28:43.100Z,15.8
2017-09-12T03:29:42.768Z,15.75
2017-09-12T03:30:43.098Z,15.95
2017-09-12T03:31:42.737Z,15.97
2017-09-12T03:32:43.030Z,15.98
2017-09-12T03:33:43.012Z,16
2017-09-12T03:34:42.689Z,15.71
2017-09-12T03:35:42.655Z,15.64
2017-09-12T03:36:42.341Z,15.65
2017-09-12T03:37:42.630Z,15.75
2017-09-12T03:38:42.922Z,15.75
2017-09-12T03:39:42.609Z,15.83
2017-09-12T03:40:42.577Z,15.83
2017-09-12T03:41:42.559Z,15.85
2017-09-12T03:42:42.855Z,15.8
2017-09-12T03:43:42.541Z,15.92
2017-09-12T03:44:42.819Z,15.77
2017-09-12T03:45:42.493Z,15.82
2017-09-12T03:46:42.780Z,15.79
2017-09-12T03:47:42.783Z,15.79
2017-09-12T03:48:42.432Z,15.68
2017-09-12T03:49:42.471Z,15.6
2017-09-12T03:50:42.700Z,15.57
2017-09-12T03:51:42.689Z,15.46
2017-09-12T03:52:42.672Z,15.57
2017-09-12T03:53:42.670Z,15.5
2017-09-12T03:54:42.649Z,15.67
2017-09-12T03:55:42.004Z,15.67
2017-09-12T03:56:42.630Z,15.65
2017-09-12T03:57:42.279Z,15.64
2017-09-12T03:58:42.259Z,15.64
2017-09-12T03:59:42.240Z,15.64
2017-09-12T04:00:42.548Z,15.62
2017-09-12T04:01:42.518Z,15.68
2017-09-12T04:02:42.181Z,15.75
2017-09-12T04:03:42.169Z,15.79
2017-09-12T04:04:42.459Z,15.57
2017-09-12T04:05:42.439Z,15.65
2017-09-12T04:06:42.109Z,15.69
2017-09-12T04:07:42.435Z,15.77
2017-09-12T04:08:42.401Z,15.61
2017-09-12T04:09:42.369Z,15.69
2017-09-12T04:10:42.369Z,15.76
2017-09-12T04:11:42.028Z,15.77
2017-09-12T04:12:42.330Z,15.72
2017-09-12T04:13:42.299Z,15.54
2017-09-12T04:14:41.975Z,15.6
2017-09-12T04:15:42.278Z,15.58
2017-09-12T04:16:41.934Z,15.61
2017-09-12T04:17:41.915Z,15.58
2017-09-12T04:18:42.212Z,15.61
2017-09-12T04:19:41.897Z,15.58
2017-09-12T04:20:42.177Z,15.52
2017-09-12T04:21:42.160Z,15.6
2017-09-12T04:22:42.139Z,15.53
2017-09-12T04:23:41.500Z,15.52
2017-09-12T04:24:41.790Z,15.64
2017-09-12T04:25:41.469Z,15.75
2017-09-12T04:26:41.769Z,15.71
2017-09-12T04:27:41.440Z,15.68
2017-09-12T04:28:41.737Z,15.69
2017-09-12T04:29:41.705Z,15.68
2017-09-12T04:30:41.679Z,15.67
2017-09-12T04:31:41.974Z,15.69
2017-09-12T04:32:41.671Z,15.76
2017-09-12T04:33:41.646Z,15.64
2017-09-12T04:34:41.297Z,15.53
2017-09-12T04:35:41.909Z,15.61
2017-09-12T04:36:41.889Z,15.57
2017-09-12T04:37:41.869Z,15.58
2017-09-12T04:38:41.859Z,15.52
2017-09-12T04:39:41.539Z,15.52
2017-09-12T04:40:41.528Z,15.57
2017-09-12T04:41:41.799Z,15.49
2017-09-12T04:42:41.784Z,15.52
2017-09-12T04:43:41.454Z,15.43
2017-09-12T04:44:41.428Z,15.43
2017-09-12T04:45:41.731Z,15.52
2017-09-12T04:46:41.410Z,15.37
2017-09-12T04:47:41.701Z,15.34
2017-09-12T04:48:41.057Z,15.4
2017-09-12T04:49:41.660Z,15.46
2017-09-12T04:50:41.340Z,15.49
2017-09-12T04:51:41.618Z,15.44
2017-09-12T04:52:41.616Z,15.24
2017-09-12T04:53:41.284Z,15.2
2017-09-12T04:54:40.954Z,15.22
2017-09-12T04:55:41.588Z,15.31
2017-09-12T04:56:41.228Z,15.22
2017-09-12T04:57:41.222Z,15.14
2017-09-12T04:58:41.493Z,15.21
2017-09-12T04:59:41.168Z,15.29
2017-09-12T05:00:41.159Z,15.24
2017-09-12T05:01:41.138Z,15.24
2017-09-12T05:02:40.809Z,15.34
2017-09-12T05:03:41.089Z,15.4
2017-09-12T05:04:40.761Z,15.39
2017-09-12T05:05:41.368Z,15.47
2017-09-12T05:06:40.739Z,15.4
2017-09-12T05:07:40.718Z,15.37
2017-09-12T05:08:41.318Z,15.46
2017-09-12T05:09:40.989Z,15.42
2017-09-12T05:10:41.279Z,15.47
2017-09-12T05:11:41.262Z,15.61
2017-09-12T05:12:41.243Z,15.49
2017-09-12T05:13:40.909Z,15.58
2017-09-12T05:14:41.208Z,15.44
2017-09-12T05:15:41.199Z,15.5
2017-09-12T05:16:40.869Z,15.54
2017-09-12T05:17:41.144Z,15.46
2017-09-12T05:18:40.825Z,15.46
2017-09-12T05:19:40.908Z,15.44
2017-09-12T05:20:40.800Z,15.24
2017-09-12T05:21:41.092Z,15.2
2017-09-12T05:22:41.099Z,15.17
2017-09-12T05:23:40.757Z,15.17
2017-09-12T05:24:40.730Z,15.24
2017-09-12T05:25:41.037Z,15.31
2017-09-12T05:26:40.998Z,15.27
2017-09-12T05:27:40.968Z,15.24
2017-09-12T05:28:40.959Z,15.17
2017-09-12T05:29:40.948Z,15.27
2017-09-12T05:30:40.919Z,15.25
2017-09-12T05:31:40.915Z,15.35
2017-09-12T05:32:40.892Z,15.42
2017-09-12T05:33:40.891Z,15.43
2017-09-12T05:34:40.837Z,15.44
2017-09-12T05:35:40.865Z,15.4
2017-09-12T05:36:40.849Z,15.46
2017-09-12T05:37:40.803Z,15.42
2017-09-12T05:38:40.531Z,15.47
2017-09-12T05:39:40.790Z,15.39
2017-09-12T05:40:40.115Z,15.29
2017-09-12T05:41:40.861Z,15.24
2017-09-12T05:42:40.720Z,15.25
2017-09-12T05:43:40.389Z,15.34
2017-09-12T05:44:40.846Z,15.32
2017-09-12T05:45:40.694Z,15.27
2017-09-12T05:46:40.672Z,15.17
2017-09-12T05:47:40.731Z,15.17
2017-09-12T05:48:40.300Z,15.2
2017-09-12T05:49:40.394Z,15.06
2017-09-12T05:50:40.586Z,15.21
2017-09-12T05:51:40.309Z,15.14
2017-09-12T05:52:40.216Z,15.16
2017-09-12T05:53:40.547Z,15.17
2017-09-12T05:54:40.501Z,15.2
2017-09-12T05:55:40.167Z,15.31
2017-09-12T05:56:40.569Z,15.28
2017-09-12T05:57:40.441Z,15.39
2017-09-12T05:58:40.139Z,15.35
2017-09-12T05:59:40.399Z,15.32
2017-09-12T06:00:40.389Z,15.31
2017-09-12T06:01:40.359Z,15.25
2017-09-12T06:02:40.138Z,15.27
2017-09-12T06:03:40.339Z,15.29
2017-09-12T06:04:40.340Z,15.31
2017-09-12T06:05:40.289Z,15.32
2017-09-12T06:06:40.280Z,15.27
2017-09-12T06:07:39.949Z,15.22
2017-09-12T06:08:40.249Z,15.17
2017-09-12T06:09:40.219Z,15.13
2017-09-12T06:10:40.209Z,15.16
2017-09-12T06:11:40.201Z,15.06
2017-09-12T06:12:39.850Z,15.09
2017-09-12T06:13:39.843Z,15.2
2017-09-12T06:14:39.821Z,15.17
2017-09-12T06:15:39.485Z,15.27
2017-09-12T06:16:40.108Z,15.31
2017-09-12T06:17:39.763Z,15.44
2017-09-12T06:18:40.079Z,15.35
2017-09-12T06:19:40.131Z,15.31
2017-09-12T06:20:40.012Z,15.34
2017-09-12T06:21:39.698Z,15.34
2017-09-12T06:22:39.984Z,15.32
2017-09-12T06:23:39.999Z,15.42
2017-09-12T06:24:39.959Z,15.53
2017-09-12T06:25:39.309Z,15.54
2017-09-12T06:26:39.918Z,15.54
2017-09-12T06:27:39.892Z,15.5
2017-09-12T06:28:39.560Z,15.58
2017-09-12T06:29:39.872Z,15.52
2017-09-12T06:30:39.849Z,15.67
2017-09-12T06:31:39.940Z,15.57
2017-09-12T06:32:39.486Z,15.43
2017-09-12T06:33:39.786Z,15.29
2017-09-12T06:34:39.771Z,15.29
2017-09-12T06:35:39.751Z,15.28
2017-09-12T06:36:39.429Z,15.29
2017-09-12T06:37:39.096Z,15.43
2017-09-12T06:38:39.711Z,15.54
2017-09-12T06:39:39.369Z,15.54
2017-09-12T06:40:39.360Z,15.53
2017-09-12T06:41:39.352Z,15.57
2017-09-12T06:42:39.640Z,15.69
2017-09-12T06:43:39.324Z,15.6
2017-09-12T06:44:39.587Z,15.5
2017-09-12T06:45:39.035Z,15.42
2017-09-12T06:46:39.251Z,15.37
2017-09-12T06:47:39.239Z,15.49
2017-09-12T06:48:39.217Z,15.47
2017-09-12T06:49:39.208Z,15.34
2017-09-12T06:50:39.168Z,15.42
2017-09-12T06:51:39.540Z,15.46
2017-09-12T06:52:39.457Z,15.49
2017-09-12T06:53:39.456Z,15.57
2017-09-12T06:54:39.411Z,15.39
2017-09-12T06:55:39.397Z,15.46
2017-09-12T06:56:39.078Z,15.34
2017-09-12T06:57:38.749Z,15.29
2017-09-12T06:58:39.339Z,15.24
2017-09-12T06:59:39.069Z,15.42
2017-09-12T07:00:39.002Z,15.54
2017-09-12T07:01:39.058Z,15.42
2017-09-12T07:02:38.985Z,15.44
2017-09-12T07:03:38.958Z,15.5
2017-09-12T07:04:39.239Z,15.52
2017-09-12T07:05:38.602Z,15.46
2017-09-12T07:06:39.038Z,15.46
2017-09-12T07:07:38.900Z,15.46
2017-09-12T07:08:38.882Z,15.54
2017-09-12T07:09:39.192Z,15.5
2017-09-12T07:10:38.819Z,15.54
2017-09-12T07:11:38.943Z,15.64
2017-09-12T07:12:38.799Z,15.77
2017-09-12T07:13:39.085Z,15.65
2017-09-12T07:14:38.747Z,15.61
2017-09-12T07:15:38.481Z,15.77
2017-09-12T07:16:38.720Z,15.89
2017-09-12T07:17:39.069Z,15.89
2017-09-12T07:18:38.368Z,15.98
2017-09-12T07:19:38.669Z,15.94
2017-09-12T07:20:38.957Z,16.07
2017-09-12T07:21:38.977Z,15.95
2017-09-12T07:22:38.709Z,16.13
2017-09-12T07:23:38.609Z,16.16
2017-09-12T07:24:38.582Z,16.04
2017-09-12T07:25:38.899Z,16.01
2017-09-12T07:26:38.549Z,16.01
2017-09-12T07:27:38.541Z,16.12
2017-09-12T07:28:38.907Z,16.08
2017-09-12T07:29:38.500Z,16.16
2017-09-12T07:30:38.840Z,16.16
2017-09-12T07:31:38.462Z,16.15
2017-09-12T07:32:38.772Z,16.21
2017-09-12T07:33:38.727Z,16.13
2017-09-12T07:34:38.718Z,16.07
2017-09-12T07:35:38.393Z,15.95
2017-09-12T07:36:38.379Z,16.04
2017-09-12T07:37:38.678Z,16.2
2017-09-12T07:38:38.353Z,16.24
2017-09-12T07:39:38.643Z,16.24
2017-09-12T07:40:38.359Z,16.28
2017-09-12T07:41:38.618Z,16.27
2017-09-12T07:42:38.584Z,16.34
2017-09-12T07:43:38.592Z,16.38
2017-09-12T07:44:38.560Z,16.24
2017-09-12T07:45:38.643Z,16.34
2017-09-12T07:46:38.563Z,16.39
2017-09-12T07:47:38.618Z,16.35
2017-09-12T07:48:38.599Z,16.36
2017-09-12T07:49:38.150Z,16.38
2017-09-12T07:50:38.468Z,16.36
2017-09-12T07:51:38.440Z,15.98
2017-09-12T07:52:38.479Z,16.04
2017-09-12T07:53:38.502Z,16.04
2017-09-12T07:54:38.092Z,16.08
2017-09-12T07:55:38.410Z,15.94
2017-09-12T07:56:38.040Z,15.94
2017-09-12T07:57:37.709Z,15.95
2017-09-12T07:58:38.002Z,15.94
2017-09-12T07:59:38.303Z,15.95
2017-09-12T08:00:37.969Z,15.95
2017-09-12T08:01:37.957Z,15.87
2017-09-12T08:02:37.929Z,15.92
2017-09-12T08:03:37.910Z,15.85
2017-09-12T08:04:37.579Z,15.97
2017-09-12T08:05:37.879Z,16.15
2017-09-12T08:06:37.889Z,16.34
2017-09-12T08:07:38.149Z,16.53
2017-09-12T08:08:37.828Z,16.61
2017-09-12T08:09:38.189Z,16.63
2017-09-12T08:10:38.095Z,16.96
2017-09-12T08:11:38.087Z,17.36
2017-09-12T08:12:37.768Z,17.21
2017-09-12T08:13:37.750Z,17.44
2017-09-12T08:14:38.029Z,17.52
2017-09-12T08:15:37.719Z,17.68
2017-09-12T08:16:37.702Z,18.02
2017-09-12T08:17:38.018Z,18.51
2017-09-12T08:18:37.979Z,17.93
2017-09-12T08:19:37.660Z,18.18
2017-09-12T08:20:37.949Z,18.4
2017-09-12T08:21:37.627Z,18.42
2017-09-12T08:22:37.610Z,18.18
2017-09-12T08:23:37.910Z,17.98
2017-09-12T08:24:37.908Z,17.87
2017-09-12T08:25:37.893Z,18.04
2017-09-12T08:26:37.870Z,17.98
2017-09-12T08:27:37.860Z,18.05
2017-09-12T08:28:37.849Z,18.04
2017-09-12T08:29:37.208Z,17.89
2017-09-12T08:30:37.831Z,17.83
2017-09-12T08:31:37.801Z,17.78
2017-09-12T08:32:37.482Z,17.71
2017-09-12T08:33:37.780Z,17.87
2017-09-12T08:34:37.774Z,17.86
2017-09-12T08:35:37.450Z,18.18
2017-09-12T08:36:37.438Z,18.26
2017-09-12T08:37:37.718Z,18.26
2017-09-12T08:38:37.401Z,18.42
2017-09-12T08:39:37.381Z,18.58
2017-09-12T08:40:37.061Z,18.08
2017-09-12T08:41:37.360Z,17.98
2017-09-12T08:42:37.648Z,17.95
2017-09-12T08:43:37.339Z,18.18
2017-09-12T08:44:37.319Z,18.44
2017-09-12T08:45:37.300Z,18.38
2017-09-12T08:46:37.297Z,18.73
2017-09-12T08:47:37.590Z,19.06
2017-09-12T08:48:37.582Z,19.18
2017-09-12T08:49:36.938Z,19.21
2017-09-12T08:50:37.269Z,19.14
2017-09-12T08:51:37.520Z,18.92
2017-09-12T08:52:37.508Z,18.93
2017-09-12T08:53:36.880Z,19.07
2017-09-12T08:54:37.490Z,19.22
2017-09-12T08:55:37.509Z,19.15
2017-09-12T08:56:37.198Z,18.93
2017-09-12T08:57:37.458Z,18.82
2017-09-12T08:58:37.447Z,18.66
2017-09-12T08:59:37.438Z,18.41
2017-09-12T09:00:37.534Z,18.41
2017-09-12T09:01:37.411Z,18.87
2017-09-12T09:02:37.091Z,19.33
2017-09-12T09:03:37.091Z,19.18
2017-09-12T09:04:37.457Z,19.22
2017-09-12T09:05:37.364Z,19.4
2017-09-12T09:06:37.407Z,19.21
2017-09-12T09:07:37.352Z,19.41
2017-09-12T09:08:36.710Z,19.34
2017-09-12T09:09:37.358Z,19.41
2017-09-12T09:10:37.309Z,18.85
2017-09-12T09:11:36.979Z,18.88
2017-09-12T09:12:37.050Z,19.06
2017-09-12T09:13:37.310Z,19.18
2017-09-12T09:14:37.349Z,19.18
2017-09-12T09:15:36.920Z,19.37
2017-09-12T09:16:37.477Z,19.31
2017-09-12T09:17:36.911Z,19.8
2017-09-12T09:18:37.198Z,20.18
2017-09-12T09:19:36.871Z,20.18
2017-09-12T09:20:36.869Z,20.26
2017-09-12T09:21:36.545Z,19.58
2017-09-12T09:22:37.176Z,19.3
2017-09-12T09:23:36.529Z,19
2017-09-12T09:24:37.142Z,18.9
2017-09-12T09:25:36.806Z,18.78
2017-09-12T09:26:37.095Z,18.85
2017-09-12T09:27:36.779Z,18.6
2017-09-12T09:28:36.769Z,18.8
2017-09-12T09:29:36.758Z,18.75
2017-09-12T09:30:37.050Z,19.22
2017-09-12T09:31:36.738Z,19.4
2017-09-12T09:32:37.040Z,19.25
2017-09-12T09:33:36.602Z,18.9
2017-09-12T09:34:36.690Z,18.95
2017-09-12T09:35:36.372Z,19.25
2017-09-12T09:36:36.359Z,19.53
2017-09-12T09:37:36.668Z,19.77
2017-09-12T09:38:36.948Z,19.74
2017-09-12T09:39:36.747Z,19.52
2017-09-12T09:40:36.924Z,19.38
2017-09-12T09:41:36.939Z,20.08
2017-09-12T09:42:36.900Z,20.38
2017-09-12T09:43:36.602Z,20.66
2017-09-12T09:44:36.589Z,20.35
2017-09-12T09:45:36.560Z,20.14
2017-09-12T09:46:36.560Z,20.18
2017-09-12T09:47:36.843Z,19.81
2017-09-12T09:48:36.529Z,19.34
2017-09-12T09:49:36.542Z,19.34
2017-09-12T09:50:36.829Z,19.36
2017-09-12T09:51:36.799Z,19.67
2017-09-12T09:52:36.480Z,20.17
2017-09-12T09:53:36.788Z,20.29
2017-09-12T09:54:36.559Z,20.67
2017-09-12T09:55:36.471Z,20.88
2017-09-12T09:56:36.764Z,20.95
2017-09-12T09:57:36.439Z,20.97
2017-09-12T09:58:36.729Z,20.62
2017-09-12T09:59:36.408Z,20.52
2017-09-12T10:00:36.695Z,20.49
2017-09-12T10:01:36.381Z,20.52
2017-09-12T10:02:36.802Z,20.79
2017-09-12T10:03:36.358Z,21.15
2017-09-12T10:04:36.656Z,21.28
2017-09-12T10:05:36.338Z,21.25
2017-09-12T10:06:36.342Z,21.22
2017-09-12T10:07:36.749Z,21.61
2017-09-12T10:08:36.312Z,21.76
2017-09-12T10:09:36.607Z,21.96
2017-09-12T10:10:36.368Z,21.36
2017-09-12T10:11:36.299Z,21.34
2017-09-12T10:12:36.660Z,21.43
2017-09-12T10:13:36.609Z,21
2017-09-12T10:14:36.249Z,21
2017-09-12T10:15:36.226Z,21.4
2017-09-12T10:16:36.208Z,21.83
2017-09-12T10:17:35.898Z,22.08
2017-09-12T10:18:36.191Z,21.55
2017-09-12T10:19:36.503Z,21.21
2017-09-12T10:20:36.181Z,21.7
2017-09-12T10:21:36.461Z,22.17
2017-09-12T10:22:36.149Z,21.66
2017-09-12T10:23:36.143Z,21.79
2017-09-12T10:24:36.144Z,21.4
2017-09-12T10:25:36.124Z,21.39
2017-09-12T10:26:36.418Z,21.43
2017-09-12T10:27:36.099Z,20.69
2017-09-12T10:28:36.388Z,20.11
2017-09-12T10:29:35.772Z,20.33
2017-09-12T10:30:36.368Z,20.82
2017-09-12T10:31:36.360Z,20.84
2017-09-12T10:32:35.719Z,21.04
2017-09-12T10:33:36.022Z,21.44
2017-09-12T10:34:36.313Z,21.68
2017-09-12T10:35:35.689Z,21.56
2017-09-12T10:36:36.298Z,21.97
2017-09-12T10:37:36.298Z,21.95
2017-09-12T10:38:35.990Z,22.11
2017-09-12T10:39:36.270Z,22.03
2017-09-12T10:40:36.439Z,22.42
2017-09-12T10:41:36.262Z,22.42
2017-09-12T10:42:36.215Z,22.29
2017-09-12T10:43:36.212Z,21.66
2017-09-12T10:44:36.210Z,21.34
2017-09-12T10:45:36.188Z,21.04
2017-09-12T10:46:35.889Z,20.81
2017-09-12T10:47:36.168Z,21.09
2017-09-12T10:48:36.140Z,21.21
2017-09-12T10:49:36.162Z,21.55
2017-09-12T10:50:36.149Z,21.43
2017-09-12T10:51:36.117Z,21.62
2017-09-12T10:52:36.111Z,21.77
2017-09-12T10:53:35.478Z,20.92
2017-09-12T10:54:36.088Z,20.41
2017-09-12T10:55:35.773Z,20.64
2017-09-12T10:56:36.059Z,20.94
2017-09-12T10:57:36.056Z,21.19
2017-09-12T10:58:36.054Z,21.56
2017-09-12T10:59:36.023Z,21.55
2017-09-12T11:00:36.010Z,21.47
2017-09-12T11:01:35.699Z,21.28
2017-09-12T11:02:35.998Z,21.18
2017-09-12T11:03:35.971Z,21.19
2017-09-12T11:04:35.980Z,21.13
2017-09-12T11:05:35.962Z,20.91
2017-09-12T11:06:35.948Z,20.91
2017-09-12T11:07:35.945Z,21
2017-09-12T11:08:35.602Z,21.13
2017-09-12T11:09:35.919Z,21.47
2017-09-12T11:10:35.914Z,21.59
2017-09-12T11:11:35.881Z,21.37
2017-09-12T11:12:35.577Z,21.25
2017-09-12T11:13:35.867Z,21.44
2017-09-12T11:14:35.970Z,21.21
2017-09-12T11:15:35.509Z,20.85
2017-09-12T11:16:35.811Z,20.7
2017-09-12T11:17:35.500Z,21.11
2017-09-12T11:18:35.977Z,21.43
2017-09-12T11:19:35.470Z,21.58
2017-09-12T11:20:35.452Z,21.81
2017-09-12T11:21:35.136Z,22.25
2017-09-12T11:22:35.738Z,22.76
2017-09-12T11:23:35.729Z,22.48
2017-09-12T11:24:35.406Z,22.79
2017-09-12T11:25:35.390Z,22.74
2017-09-12T11:26:35.849Z,22.82
2017-09-12T11:27:35.360Z,22.57
2017-09-12T11:28:35.680Z,22.24
2017-09-12T11:29:35.711Z,22.37
2017-09-12T11:30:35.324Z,22
2017-09-12T11:31:35.672Z,21.49
2017-09-12T11:32:35.617Z,21.8
2017-09-12T11:33:35.600Z,21.8
2017-09-12T11:34:35.643Z,21.8
2017-09-12T11:35:35.609Z,22.21
2017-09-12T11:36:35.306Z,22.66
2017-09-12T11:37:35.550Z,22.95
2017-09-12T11:38:35.534Z,23.13
2017-09-12T11:39:35.223Z,23.13
2017-09-12T11:40:35.520Z,23.06
2017-09-12T11:41:35.549Z,22.42
2017-09-12T11:42:35.492Z,22.12
2017-09-12T11:43:35.481Z,22.11
2017-09-12T11:44:35.470Z,22.43
2017-09-12T11:45:34.837Z,22.51
2017-09-12T11:46:35.439Z,22.08
2017-09-12T11:47:35.437Z,22.12
2017-09-12T11:48:35.421Z,22.17
2017-09-12T11:49:35.428Z,21.79
2017-09-12T11:50:35.431Z,21.59
2017-09-12T11:51:35.105Z,21.4
2017-09-12T11:52:35.377Z,21.61
2017-09-12T11:53:35.368Z,21.93
2017-09-12T11:54:34.730Z,21.76
2017-09-12T11:55:35.340Z,22.12
2017-09-12T11:56:35.330Z,22.43
2017-09-12T11:57:35.314Z,22.67
2017-09-12T11:58:35.294Z,22.92
2017-09-12T11:59:34.988Z,22.79
2017-09-12T12:00:34.971Z,22.65
2017-09-12T12:01:34.970Z,22.37
2017-09-12T12:02:35.259Z,22.32
2017-09-12T12:03:34.979Z,22.35
2017-09-12T12:04:34.919Z,22.39
2017-09-12T12:05:35.235Z,22.32
2017-09-12T12:06:35.219Z,22.39
2017-09-12T12:07:34.895Z,21.74
2017-09-12T12:08:35.200Z,22.08
2017-09-12T12:09:35.182Z,22.36
2017-09-12T12:10:35.160Z,22.84
2017-09-12T12:11:34.844Z,23.02
2017-09-12T12:12:34.824Z,22.88
2017-09-12T12:13:35.150Z,22.74
2017-09-12T12:14:35.122Z,22.8
2017-09-12T12:15:35.112Z,22.59
2017-09-12T12:16:34.470Z,22.33
2017-09-12T12:17:34.773Z,22.36
2017-09-12T12:18:35.060Z,22.52
2017-09-12T12:19:34.746Z,22.1
2017-09-12T12:20:35.052Z,22.1
2017-09-12T12:21:35.029Z,21.97
2017-09-12T12:22:35.060Z,22.22
2017-09-12T12:23:35.106Z,22.42
2017-09-12T12:24:34.998Z,22.65
2017-09-12T12:25:34.993Z,23.14
2017-09-12T12:26:34.988Z,22.82
2017-09-12T12:27:34.986Z,22.42
2017-09-12T12:28:34.705Z,22.61
2017-09-12T12:29:34.625Z,22.3
2017-09-12T12:30:34.992Z,22.45
2017-09-12T12:31:34.612Z,22.48
2017-09-12T12:32:34.908Z,22.22
2017-09-12T12:33:34.950Z,22.15
2017-09-12T12:34:34.875Z,22.39
2017-09-12T12:35:34.871Z,22.77
2017-09-12T12:36:34.859Z,23.04
2017-09-12T12:37:34.527Z,22.89
2017-09-12T12:38:34.509Z,23.12
2017-09-12T12:39:34.512Z,22.77
2017-09-12T12:40:34.834Z,22.82
2017-09-12T12:41:34.899Z,22.58
2017-09-12T12:42:34.467Z,22.45
2017-09-12T12:43:34.880Z,22.39
2017-09-12T12:44:34.449Z,22.27
2017-09-12T12:45:34.138Z,22.39
2017-09-12T12:46:34.753Z,22.45
2017-09-12T12:47:34.727Z,22.36
2017-09-12T12:48:34.729Z,22.17
2017-09-12T12:49:34.698Z,21.97
2017-09-12T12:50:34.393Z,21.56
2017-09-12T12:51:34.359Z,21.86
2017-09-12T12:52:34.662Z,21.95
2017-09-12T12:53:34.340Z,21.56
2017-09-12T12:54:34.639Z,21.68
2017-09-12T12:55:34.638Z,21.09
2017-09-12T12:56:33.998Z,20.99